createdAt,value
2018-04-11T00:00:33.318Z,8.20
2018-04-11T00:03:00.888Z,8.20
2018-04-11T00:05:28.439Z,8.10
2018-04-11T00:07:56.009Z,8.00
2018-04-11T00:10:23.565Z,7.80
2018-04-11T00:12:51.136Z,8.00
2018-04-11T00:15:18.676Z,7.90
2018-04-11T00:17:46.252Z,7.80
2018-04-11T00:20:13.806Z,7.70
2018-04-11T00:22:41.369Z,7.70
2018-04-11T00:25:08.916Z,7.60
2018-04-11T00:27:36.497Z,7.50
2018-04-11T00:30:04.046Z,7.40
2018-04-11T00:32:31.613Z,7.40
2018-04-11T00:34:59.190Z,7.50
2018-04-11T00:37:26.736Z,7.30
2018-04-11T00:39:54.309Z,7.30
2018-04-11T00:42:21.849Z,7.30
2018-04-11T00:44:50.178Z,7.40
2018-04-11T00:47:17.716Z,7.40
2018-04-11T00:49:45.293Z,7.20
2018-04-11T00:52:12.843Z,7.00
2018-04-11T00:54:40.413Z,6.90
2018-04-11T00:57:07.956Z,6.90
2018-04-11T00:59:35.531Z,6.90
2018-04-11T01:02:03.300Z,6.80
2018-04-11T01:04:30.856Z,6.90
2018-04-11T01:06:58.406Z,6.80
2018-04-11T01:09:25.969Z,6.80
2018-04-11T01:11:53.510Z,6.80
2018-04-11T01:14:21.071Z,6.70
2018-04-11T01:16:48.604Z,6.80
2018-04-11T01:19:16.170Z,6.60
2018-04-11T01:21:43.713Z,6.50
2018-04-11T01:24:11.276Z,6.40
2018-04-11T01:26:38.820Z,6.40
2018-04-11T01:29:07.163Z,6.50
2018-04-11T01:31:34.709Z,6.50
2018-04-11T01:34:02.276Z,6.50
2018-04-11T01:36:29.812Z,6.40
2018-04-11T01:38:57.394Z,6.40
2018-04-11T01:41:24.935Z,6.30
2018-04-11T01:43:52.478Z,6.20
2018-04-11T01:46:20.052Z,6.20
2018-04-11T01:48:47.597Z,6.20
2018-04-11T01:51:15.169Z,6.10
2018-04-11T01:53:42.717Z,6.10
2018-04-11T01:56:10.298Z,6.10
2018-04-11T01:58:38.777Z,6.00
2018-04-11T02:01:06.358Z,6.00
2018-04-11T02:03:33.901Z,6.00
2018-04-11T02:06:01.481Z,5.90
2018-04-11T02:08:29.025Z,5.90
2018-04-11T02:10:56.593Z,5.90
2018-04-11T02:13:24.142Z,5.90
2018-04-11T02:15:51.700Z,6.20
2018-04-11T02:18:20.220Z,6.20
2018-04-11T02:20:48.553Z,5.80
2018-04-11T02:23:16.096Z,5.80
2018-04-11T02:25:43.667Z,5.70
2018-04-11T02:28:11.208Z,5.80
2018-04-11T02:30:39.171Z,5.70
2018-04-11T02:33:06.718Z,5.70
2018-04-11T02:35:34.573Z,5.60
2018-04-11T02:38:02.875Z,5.70
2018-04-11T02:40:30.438Z,5.60
2018-04-11T02:42:57.985Z,5.70
2018-04-11T02:45:25.539Z,5.50
2018-04-11T02:47:53.072Z,5.50
2018-04-11T02:50:20.636Z,5.50
2018-04-11T02:52:48.937Z,5.30
2018-04-11T02:55:16.488Z,5.30
2018-04-11T02:57:44.055Z,5.50
2018-04-11T03:00:11.609Z,5.40
2018-04-11T03:02:41.004Z,5.30
2018-04-11T03:05:08.579Z,5.40
2018-04-11T03:07:36.145Z,5.40
2018-04-11T03:10:03.685Z,5.20
2018-04-11T03:12:31.255Z,5.20
2018-04-11T03:14:59.739Z,5.20
2018-04-11T03:17:27.302Z,5.20
2018-04-11T03:19:54.836Z,5.20
2018-04-11T03:22:22.449Z,5.20
2018-04-11T03:24:49.969Z,5.20
2018-04-11T03:27:17.545Z,5.10
2018-04-11T03:29:45.104Z,5.10
2018-04-11T03:32:12.701Z,5.10
2018-04-11T03:34:41.014Z,5.00
2018-04-11T03:37:08.583Z,5.00
2018-04-11T03:39:36.130Z,5.00
2018-04-11T03:42:03.743Z,5.00
2018-04-11T03:44:31.261Z,5.10
2018-04-11T03:46:58.829Z,5.00
2018-04-11T03:49:26.381Z,5.00
2018-04-11T03:51:53.965Z,5.10
2018-04-11T03:54:21.516Z,5.10
2018-04-11T03:56:49.092Z,5.00
2018-04-11T03:59:16.677Z,5.00
2018-04-11T04:01:45.052Z,5.10
2018-04-11T04:04:12.568Z,5.00
2018-04-11T04:06:40.158Z,5.10
2018-04-11T04:09:07.714Z,5.00
2018-04-11T04:11:35.262Z,4.90
2018-04-11T04:14:14.528Z,4.90
2018-04-11T04:16:55.025Z,4.80
2018-04-11T04:19:31.054Z,4.80
2018-04-11T04:21:58.649Z,4.80
2018-04-11T04:24:26.192Z,4.80
2018-04-11T04:26:53.844Z,4.90
2018-04-11T04:29:21.695Z,4.90
2018-04-11T04:31:49.241Z,5.00
2018-04-11T04:34:16.811Z,5.00
2018-04-11T04:36:44.436Z,4.90
2018-04-11T04:39:12.617Z,5.00
2018-04-11T04:41:40.267Z,4.90
2018-04-11T04:44:07.932Z,4.70
2018-04-11T04:46:35.538Z,4.70
2018-04-11T04:49:03.160Z,4.70
2018-04-11T04:51:30.707Z,4.60
2018-04-11T04:53:59.149Z,4.70
2018-04-11T04:56:27.535Z,4.70
2018-04-11T04:58:55.102Z,4.60
2018-04-11T05:01:22.644Z,4.60
2018-04-11T05:03:50.246Z,4.60
2018-04-11T05:06:18.534Z,4.70
2018-04-11T05:08:46.101Z,4.70
2018-04-11T05:11:14.410Z,4.70
2018-04-11T05:13:41.982Z,4.70
2018-04-11T05:16:09.528Z,4.80
2018-04-11T05:18:37.112Z,4.70
2018-04-11T05:21:04.664Z,4.70
2018-04-11T05:23:32.210Z,4.70
2018-04-11T05:25:59.777Z,4.80
2018-04-11T05:28:27.323Z,4.90
2018-04-11T05:30:54.889Z,4.90
2018-04-11T05:33:22.435Z,4.90
2018-04-11T05:35:50.005Z,5.10
2018-04-11T05:38:17.548Z,5.00
2018-04-11T05:40:45.125Z,5.00
2018-04-11T05:43:12.672Z,5.10
2018-04-11T05:45:40.236Z,5.10
2018-04-11T05:48:07.776Z,5.10
2018-04-11T05:50:35.354Z,5.20
2018-04-11T05:53:02.961Z,5.20
2018-04-11T05:55:30.505Z,5.30
2018-04-11T05:57:58.044Z,5.50
2018-04-11T06:00:25.618Z,5.90
2018-04-11T06:02:53.163Z,6.50
2018-04-11T06:05:20.725Z,6.90
2018-04-11T06:07:48.265Z,7.30
2018-04-11T06:10:15.825Z,7.80
2018-04-11T06:12:43.368Z,8.30
2018-04-11T06:15:10.930Z,8.70
2018-04-11T06:17:38.473Z,9.10
2018-04-11T06:20:06.647Z,9.60
2018-04-11T06:22:34.192Z,10.10
2018-04-11T06:25:01.842Z,10.60
2018-04-11T06:27:30.191Z,11.70
2018-04-11T06:29:58.350Z,11.60
2018-04-11T06:32:25.905Z,12.20
2018-04-11T06:34:53.472Z,12.70
2018-04-11T06:37:21.050Z,13.20
2018-04-11T06:39:48.594Z,13.60
2018-04-11T06:42:16.168Z,14.00
2018-04-11T06:44:43.717Z,14.40
2018-04-11T06:47:11.284Z,14.90
2018-04-11T06:49:38.829Z,15.40
2018-04-11T06:52:06.398Z,15.80
2018-04-11T06:54:33.976Z,16.30
2018-04-11T06:57:01.550Z,16.70
2018-04-11T06:59:29.892Z,17.60
2018-04-11T07:01:57.470Z,17.50
2018-04-11T07:04:25.136Z,18.00
2018-04-11T07:06:53.472Z,18.90
2018-04-11T07:09:21.023Z,18.90
2018-04-11T07:11:48.593Z,19.20
2018-04-11T07:14:16.132Z,19.80
2018-04-11T07:16:43.710Z,20.20
2018-04-11T07:19:11.263Z,20.60
2018-04-11T07:21:38.834Z,21.00
2018-04-11T07:24:06.387Z,21.30
2018-04-11T07:26:33.977Z,21.60
2018-04-11T07:29:01.529Z,22.10
2018-04-11T07:31:29.104Z,22.40
2018-04-11T07:33:56.654Z,22.70
2018-04-11T07:36:24.222Z,23.00
2018-04-11T07:38:52.528Z,23.50
2018-04-11T07:41:20.101Z,23.40
2018-04-11T07:43:47.662Z,23.80
2018-04-11T07:46:15.249Z,23.90
2018-04-11T07:48:42.802Z,24.20
2018-04-11T07:51:10.355Z,24.30
2018-04-11T07:53:38.685Z,25.10
2018-04-11T07:56:06.233Z,25.10
2018-04-11T07:58:33.800Z,25.20
2018-04-11T08:01:01.352Z,25.30
2018-04-11T08:03:29.736Z,26.00
2018-04-11T08:05:57.272Z,26.00
2018-04-11T08:08:24.849Z,26.30
2018-04-11T08:10:53.174Z,26.80
2018-04-11T08:13:20.761Z,26.80
2018-04-11T08:15:48.314Z,27.20
2018-04-11T08:18:15.947Z,27.50
2018-04-11T08:20:44.233Z,27.70
2018-04-11T08:23:11.825Z,27.60
2018-04-11T08:25:39.378Z,28.10
2018-04-11T08:28:06.993Z,28.20
2018-04-11T08:30:34.542Z,28.50
2018-04-11T08:33:02.116Z,28.80
2018-04-11T08:35:29.665Z,29.20
2018-04-11T08:37:57.253Z,29.20
2018-04-11T08:40:24.815Z,29.50
2018-04-11T08:42:52.394Z,29.60
2018-04-11T08:45:19.936Z,29.70
2018-04-11T08:47:47.504Z,29.80
2018-04-11T08:50:15.052Z,30.00
2018-04-11T08:52:42.597Z,30.40
2018-04-11T08:55:10.173Z,30.60
2018-04-11T08:57:37.738Z,30.50
2018-04-11T09:00:05.305Z,30.60
2018-04-11T09:02:33.096Z,30.70
2018-04-11T09:05:00.669Z,30.90
2018-04-11T09:07:28.208Z,31.00
2018-04-11T09:09:56.549Z,31.30
2018-04-11T09:12:24.098Z,31.30
2018-04-11T09:14:51.674Z,31.40
2018-04-11T09:17:19.233Z,31.60
2018-04-11T09:19:46.806Z,31.90
2018-04-11T09:22:14.357Z,31.80
2018-04-11T09:24:42.702Z,32.60
2018-04-11T09:27:10.263Z,32.50
2018-04-11T09:29:37.836Z,32.70
2018-04-11T09:32:05.385Z,32.70
2018-04-11T09:34:32.962Z,33.10
2018-04-11T09:37:00.510Z,33.00
2018-04-11T09:39:28.076Z,32.80
2018-04-11T09:41:55.659Z,32.70
2018-04-11T09:44:23.233Z,33.10
2018-04-11T09:46:50.783Z,33.30
2018-04-11T09:49:19.121Z,33.30
2018-04-11T09:51:46.674Z,33.20
2018-04-11T09:54:14.245Z,33.30
2018-04-11T09:56:44.185Z,33.70
2018-04-11T09:59:11.757Z,33.90
2018-04-11T10:01:44.965Z,34.20
2018-04-11T10:04:12.535Z,34.10
2018-04-11T10:06:40.089Z,34.30
2018-04-11T10:09:08.645Z,34.10
2018-04-11T10:11:36.193Z,34.50
2018-04-11T10:14:05.205Z,34.60
2018-04-11T10:16:32.793Z,34.50
2018-04-11T10:19:00.349Z,34.50
2018-04-11T10:21:27.912Z,34.40
2018-04-11T10:23:55.454Z,34.90
2018-04-11T10:26:23.025Z,34.90
2018-04-11T10:28:50.578Z,34.60
2018-04-11T10:31:18.154Z,34.50
2018-04-11T10:33:48.111Z,34.20
2018-04-11T10:36:15.842Z,34.30
2018-04-11T10:38:43.385Z,34.50
2018-04-11T10:41:10.955Z,34.00
2018-04-11T10:43:38.502Z,33.80
2018-04-11T10:46:06.080Z,33.70
2018-04-11T10:48:33.679Z,33.50
2018-04-11T10:51:01.254Z,32.30
2018-04-11T10:53:28.795Z,31.70
2018-04-11T10:55:56.370Z,31.40
2018-04-11T10:58:23.925Z,31.30
2018-04-11T11:00:51.550Z,30.90
2018-04-11T11:03:19.061Z,30.20
2018-04-11T11:05:46.630Z,29.50
2018-04-11T11:08:14.261Z,28.70
2018-04-11T11:10:41.834Z,28.10
2018-04-11T11:13:09.381Z,27.80
2018-04-11T11:15:36.957Z,27.40
2018-04-11T11:18:04.573Z,26.90
2018-04-11T11:20:32.913Z,26.30
2018-04-11T11:23:00.482Z,26.30
2018-04-11T11:25:28.052Z,25.80
2018-04-11T11:27:55.606Z,25.30
2018-04-11T11:30:23.165Z,24.90
2018-04-11T11:32:52.249Z,24.60
2018-04-11T11:35:19.825Z,24.60
2018-04-11T11:37:47.402Z,24.30
2018-04-11T11:40:14.964Z,24.20
2018-04-11T11:42:43.306Z,23.80
2018-04-11T11:45:10.861Z,23.80
2018-04-11T11:47:38.574Z,23.80
2018-04-11T11:50:06.131Z,23.40
2018-04-11T11:52:33.711Z,23.20
2018-04-11T11:55:01.257Z,23.20
2018-04-11T11:57:28.834Z,23.00
2018-04-11T11:59:56.389Z,22.90
2018-04-11T12:02:23.985Z,22.50
2018-04-11T12:04:51.599Z,22.40
2018-04-11T12:07:19.133Z,22.40
2018-04-11T12:09:47.454Z,22.50
2018-04-11T12:12:15.027Z,22.50
2018-04-11T12:14:42.568Z,22.30
2018-04-11T12:17:10.132Z,22.00
2018-04-11T12:19:37.685Z,21.90
2018-04-11T12:22:05.266Z,22.00
2018-04-11T12:24:32.817Z,21.90
2018-04-11T12:27:00.396Z,22.00
2018-04-11T12:29:27.993Z,22.00
2018-04-11T12:31:55.550Z,21.80
2018-04-11T12:34:23.093Z,21.40
2018-04-11T12:36:50.661Z,21.50
2018-04-11T12:39:18.205Z,21.50
2018-04-11T12:41:46.553Z,21.40
2018-04-11T12:44:14.106Z,21.40
2018-04-11T12:46:41.652Z,21.50
2018-04-11T12:49:09.264Z,21.50
2018-04-11T12:51:37.586Z,21.30
2018-04-11T12:54:05.155Z,21.30
2018-04-11T12:56:32.696Z,21.30
2018-04-11T12:59:00.271Z,21.20
2018-04-11T13:01:27.825Z,21.30
2018-04-11T13:03:55.404Z,21.10
2018-04-11T13:06:22.957Z,21.20
2018-04-11T13:08:50.904Z,21.10
2018-04-11T13:11:18.456Z,20.80
2018-04-11T13:13:46.305Z,20.90
2018-04-11T13:16:13.857Z,20.60
2018-04-11T13:18:41.517Z,20.70
2018-04-11T13:21:09.113Z,20.80
2018-04-11T13:23:36.693Z,20.80
2018-04-11T13:26:04.252Z,20.80
2018-04-11T13:28:31.825Z,20.90
2018-04-11T13:30:59.404Z,20.90
2018-04-11T13:33:27.739Z,20.60
2018-04-11T13:35:55.308Z,20.60
2018-04-11T13:38:22.868Z,20.70
2018-04-11T13:40:50.424Z,20.80
2018-04-11T13:43:18.005Z,20.80
2018-04-11T13:45:45.557Z,20.80
2018-04-11T13:48:13.355Z,20.80
2018-04-11T13:50:40.915Z,20.80
2018-04-11T13:53:08.490Z,20.80
2018-04-11T13:55:36.080Z,20.70
2018-04-11T13:58:03.658Z,20.60
2018-04-11T14:00:31.213Z,20.70
2018-04-11T14:02:58.793Z,20.70
2018-04-11T14:05:27.117Z,20.60
2018-04-11T14:07:54.685Z,20.60
2018-04-11T14:10:22.268Z,20.60
2018-04-11T14:12:49.826Z,20.70
2018-04-11T14:15:17.399Z,20.80
2018-04-11T14:17:44.946Z,20.70
2018-04-11T14:20:12.521Z,20.80
2018-04-11T14:22:40.831Z,20.90
2018-04-11T14:25:08.406Z,20.90
2018-04-11T14:27:35.950Z,20.80
2018-04-11T14:30:03.516Z,20.70
2018-04-11T14:32:31.067Z,20.60
2018-04-11T14:34:58.633Z,20.70
2018-04-11T14:37:26.293Z,20.70
2018-04-11T14:39:53.861Z,20.70
2018-04-11T14:42:21.417Z,20.70
2018-04-11T14:44:48.985Z,20.60
2018-04-11T14:47:16.681Z,20.50
2018-04-11T14:49:45.034Z,20.50
2018-04-11T14:52:12.587Z,20.50
2018-04-11T14:54:40.184Z,20.50
2018-04-11T14:57:07.749Z,20.50
2018-04-11T14:59:36.085Z,20.50
2018-04-11T15:02:03.638Z,20.50
2018-04-11T15:04:31.216Z,20.50
2018-04-11T15:06:59.012Z,20.30
2018-04-11T15:09:26.590Z,20.30
2018-04-11T15:11:54.144Z,20.30
2018-04-11T15:14:21.710Z,20.30
2018-04-11T15:16:49.258Z,20.40
2018-04-11T15:19:16.811Z,20.30
2018-04-11T15:21:44.423Z,20.30
2018-04-11T15:24:11.965Z,20.30
2018-04-11T15:26:39.533Z,20.30
2018-04-11T15:29:07.855Z,20.20
2018-04-11T15:31:35.551Z,20.20
2018-04-11T15:34:03.099Z,20.10
2018-04-11T15:36:31.399Z,20.20
2018-04-11T15:38:58.945Z,20.20
2018-04-11T15:41:26.519Z,20.20
2018-04-11T15:43:54.064Z,20.20
2018-04-11T15:46:33.363Z,20.00
2018-04-11T15:49:00.904Z,19.90
2018-04-11T15:51:28.473Z,20.00
2018-04-11T15:53:56.790Z,19.80
2018-04-11T15:56:24.362Z,19.80
2018-04-11T15:58:51.918Z,19.80
2018-04-11T16:01:19.496Z,19.90
2018-04-11T16:03:47.087Z,19.90
2018-04-11T16:06:14.669Z,19.90
2018-04-11T16:08:42.213Z,19.80
2018-04-11T16:11:09.782Z,19.80
2018-04-11T16:13:37.326Z,19.80
2018-04-11T16:16:05.708Z,19.80
2018-04-11T16:18:33.266Z,19.80
2018-04-11T16:21:00.841Z,19.90
2018-04-11T16:23:31.567Z,19.80
2018-04-11T16:25:59.153Z,19.80
2018-04-11T16:28:26.725Z,19.80
2018-04-11T16:30:54.285Z,19.60
2018-04-11T16:33:21.859Z,19.60
2018-04-11T16:35:49.404Z,19.60
2018-04-11T16:38:16.986Z,19.60
2018-04-11T16:40:44.550Z,19.60
2018-04-11T16:43:12.120Z,19.50
2018-04-11T16:45:39.670Z,19.50
2018-04-11T16:48:07.242Z,19.40
2018-04-11T16:50:36.054Z,19.30
2018-04-11T16:53:03.651Z,19.30
2018-04-11T16:55:31.211Z,19.30
2018-04-11T16:57:58.786Z,19.30
2018-04-11T17:00:26.337Z,19.20
2018-04-11T17:02:53.906Z,19.10
2018-04-11T17:05:21.463Z,19.10
2018-04-11T17:07:49.042Z,18.90
2018-04-11T17:10:17.360Z,19.10
2018-04-11T17:12:44.936Z,19.10
2018-04-11T17:15:12.488Z,19.10
2018-04-11T17:17:40.062Z,19.10
2018-04-11T17:20:07.610Z,18.90
2018-04-11T17:25:50.577Z,18.80
2018-04-11T17:28:29.821Z,18.80
2018-04-11T17:31:09.912Z,18.70
2018-04-11T17:33:37.510Z,18.70
2018-04-11T17:36:05.102Z,18.60
2018-04-11T17:38:32.678Z,18.50
2018-04-11T17:41:00.227Z,18.50
2018-04-11T17:43:27.806Z,18.50
2018-04-11T17:45:55.360Z,18.30
2018-04-11T17:48:22.933Z,18.40
2018-04-11T17:50:50.479Z,18.40
2018-04-11T17:53:18.054Z,18.40
2018-04-11T17:55:45.625Z,18.30
2018-04-11T17:58:13.201Z,18.30
2018-04-11T18:00:40.781Z,18.20
2018-04-11T18:03:08.352Z,18.20
2018-04-11T18:05:35.902Z,18.20
2018-04-11T18:08:04.473Z,18.20
2018-04-11T18:10:33.083Z,18.00
2018-04-11T18:13:00.663Z,17.90
2018-04-11T18:15:28.212Z,18.00
2018-04-11T18:17:55.758Z,17.80
2018-04-11T18:20:23.382Z,17.90
2018-04-11T18:22:50.910Z,17.90
2018-04-11T18:25:18.489Z,17.80
2018-04-11T18:27:46.051Z,17.80
2018-04-11T18:30:13.620Z,17.80
2018-04-11T18:32:41.169Z,17.70
2018-04-11T18:35:08.740Z,17.70
2018-04-11T18:37:36.287Z,17.70
2018-04-11T18:40:03.869Z,17.60
2018-04-11T18:42:32.177Z,17.60
2018-04-11T18:44:59.748Z,17.60
2018-04-11T18:47:27.320Z,17.50
2018-04-11T18:49:55.658Z,17.50
2018-04-11T18:52:23.201Z,17.50
2018-04-11T18:54:50.800Z,17.40
2018-04-11T18:57:18.371Z,17.50
2018-04-11T18:59:45.949Z,17.30
2018-04-11T19:02:13.507Z,17.30
2018-04-11T19:04:41.077Z,17.30
2018-04-11T19:07:08.634Z,17.30
2018-04-11T19:09:36.217Z,17.30
2018-04-11T19:12:04.536Z,17.40
2018-04-11T19:14:32.106Z,17.40
2018-04-11T19:16:59.661Z,17.40
2018-04-11T19:19:27.234Z,17.30
2018-04-11T19:21:54.826Z,17.20
2018-04-11T19:24:22.502Z,17.30
2018-04-11T19:26:50.057Z,17.20
2018-04-11T19:29:17.606Z,17.20
2018-04-11T19:31:46.014Z,16.90
2018-04-11T19:34:13.570Z,16.90
2018-04-11T19:36:41.147Z,17.00
2018-04-11T19:39:08.689Z,17.10
2018-04-11T19:41:36.332Z,17.00
2018-04-11T19:44:03.899Z,17.10
2018-04-11T19:46:31.482Z,17.00
2018-04-11T19:48:59.042Z,17.00
2018-04-11T19:51:26.610Z,17.10
2018-04-11T19:53:54.163Z,17.00
2018-04-11T19:56:21.741Z,16.90
2018-04-11T19:58:49.295Z,16.90
2018-04-11T20:01:16.864Z,16.90
2018-04-11T20:03:44.413Z,16.80
2018-04-11T20:06:11.993Z,16.90
2018-04-11T20:08:39.561Z,16.90
2018-04-11T20:11:07.411Z,16.90
2018-04-11T20:13:34.929Z,16.80
2018-04-11T20:16:02.665Z,16.90
2018-04-11T20:18:30.986Z,16.80
2018-04-11T20:20:58.565Z,16.80
2018-04-11T20:23:26.108Z,16.90
2018-04-11T20:25:54.446Z,16.80
2018-04-11T20:28:21.987Z,16.80
2018-04-11T20:30:49.582Z,16.90
2018-04-11T20:33:17.129Z,16.90
2018-04-11T20:35:44.905Z,16.70
2018-04-11T20:38:12.795Z,16.80
2018-04-11T20:40:40.368Z,16.80
2018-04-11T20:43:07.941Z,16.80
2018-04-11T20:45:36.264Z,16.80
2018-04-11T20:48:03.838Z,16.70
2018-04-11T20:50:31.394Z,16.70
2018-04-11T20:52:58.960Z,16.70
2018-04-11T20:55:27.952Z,16.70
2018-04-11T20:57:55.522Z,16.70
2018-04-11T21:00:23.080Z,16.70
2018-04-11T21:02:50.662Z,16.70
2018-04-11T21:05:18.212Z,16.70
2018-04-11T21:07:45.788Z,16.70
2018-04-11T21:10:13.336Z,16.70
2018-04-11T21:12:41.130Z,16.70
2018-04-11T21:15:08.682Z,16.70
2018-04-11T21:17:37.019Z,16.60
2018-04-11T21:20:04.565Z,16.60
2018-04-11T21:22:32.146Z,16.70
2018-04-11T21:24:59.711Z,16.60
2018-04-11T21:27:27.293Z,16.80
2018-04-11T21:29:54.846Z,16.80
2018-04-11T21:32:22.418Z,16.70
2018-04-11T21:34:49.970Z,16.70
2018-04-11T21:37:18.321Z,16.70
2018-04-11T21:39:45.865Z,16.70
2018-04-11T21:42:13.408Z,16.60
2018-04-11T21:44:40.981Z,16.60
2018-04-11T21:47:08.567Z,16.60
2018-04-11T21:49:36.141Z,16.70
2018-04-11T21:52:04.448Z,16.60
2018-04-11T21:54:32.016Z,16.60
2018-04-11T21:56:59.570Z,16.60
2018-04-11T21:59:27.150Z,16.60
2018-04-11T22:01:54.701Z,16.50
2018-04-11T22:04:22.313Z,16.60
2018-04-11T22:06:49.853Z,16.60
2018-04-11T22:09:18.188Z,16.70
2018-04-11T22:11:45.762Z,16.70
2018-04-11T22:14:13.333Z,16.50
2018-04-11T22:16:40.881Z,16.50
2018-04-11T22:19:08.458Z,16.60
2018-04-11T22:21:36.009Z,16.60
2018-04-11T22:24:03.581Z,16.60
2018-04-11T22:26:31.914Z,16.60
2018-04-11T22:28:59.527Z,16.60
2018-04-11T22:31:27.057Z,16.60
2018-04-11T22:33:54.623Z,16.50
2018-04-11T22:36:22.175Z,16.50
2018-04-11T22:38:49.749Z,16.60
2018-04-11T22:41:17.316Z,16.50
2018-04-11T22:43:45.632Z,16.60
2018-04-11T22:46:13.209Z,16.50
2018-04-11T22:48:40.753Z,16.60
2018-04-11T22:51:08.333Z,16.60
2018-04-11T22:53:35.887Z,16.50
2018-04-11T22:56:03.464Z,16.50
2018-04-11T22:58:31.014Z,16.60
2018-04-11T23:00:58.580Z,16.50
2018-04-11T23:03:26.132Z,16.50
2018-04-11T23:05:53.711Z,16.50
2018-04-11T23:08:21.260Z,16.60
2018-04-11T23:10:48.833Z,16.50
2018-04-11T23:13:16.391Z,16.50
2018-04-11T23:15:43.969Z,16.50
2018-04-11T23:18:12.277Z,16.50
2018-04-11T23:20:39.849Z,16.50
2018-04-11T23:23:08.175Z,16.40
2018-04-11T23:25:35.756Z,16.40
2018-04-11T23:28:03.310Z,16.30
2018-04-11T23:30:30.886Z,16.40
2018-04-11T23:32:58.433Z,16.40
2018-04-11T23:35:26.002Z,16.30
2018-04-11T23:37:53.553Z,16.20
2018-04-11T23:40:21.897Z,16.30
2018-04-11T23:42:49.445Z,16.30
2018-04-11T23:45:17.018Z,16.30
2018-04-11T23:47:45.346Z,16.30
2018-04-11T23:50:12.926Z,16.30
2018-04-11T23:52:40.485Z,16.20
2018-04-11T23:55:08.056Z,16.20
2018-04-11T23:57:35.606Z,16.20
